createdAt,value
2022-12-06T00:01:23.362Z,87.84
2022-12-06T00:03:55.103Z,87.96
2022-12-06T00:06:23.789Z,87.62
2022-12-06T00:08:51.227Z,87.49
2022-12-06T00:11:22.169Z,87.93
2022-12-06T00:13:52.920Z,87.84
2022-12-06T00:16:19.677Z,87.80
2022-12-06T00:18:46.755Z,87.86
2022-12-06T00:21:17.754Z,88.07
2022-12-06T00:23:50.112Z,87.84
2022-12-06T00:26:17.270Z,87.65
2022-12-06T00:28:44.004Z,87.74
2022-12-06T00:31:15.173Z,87.84
2022-12-06T00:33:42.095Z,87.89
2022-12-06T00:36:12.367Z,88.17
2022-12-06T00:38:38.687Z,88.95
2022-12-06T00:41:13.885Z,88.23
2022-12-06T00:43:40.970Z,87.99
2022-12-06T00:46:09.438Z,88.59
2022-12-06T00:48:36.132Z,88.46
2022-12-06T00:51:02.776Z,88.52
2022-12-06T00:53:29.506Z,88.38
2022-12-06T00:55:56.356Z,88.68
2022-12-06T00:58:23.107Z,88.72
2022-12-06T01:00:50.745Z,88.65
2022-12-06T01:03:17.479Z,88.80
2022-12-06T01:05:49.133Z,89.47
2022-12-06T01:08:17.523Z,89.06
2022-12-06T01:10:52.399Z,89.77
2022-12-06T01:13:19.081Z,89.09
2022-12-06T01:15:45.528Z,89.04
2022-12-06T01:18:12.226Z,89.43
2022-12-06T01:20:38.679Z,89.52
2022-12-06T01:23:05.183Z,89.62
2022-12-06T01:25:35.882Z,89.44
2022-12-06T01:28:02.765Z,89.52
2022-12-06T01:30:29.579Z,89.55
2022-12-06T01:32:56.344Z,89.46
2022-12-06T01:35:22.987Z,89.74
2022-12-06T01:37:49.446Z,89.77
2022-12-06T01:40:15.882Z,89.92
2022-12-06T01:42:42.346Z,89.66
2022-12-06T01:45:10.222Z,89.81
2022-12-06T01:47:43.366Z,90.46
2022-12-06T01:50:22.493Z,89.91
2022-12-06T01:52:58.058Z,90.18
2022-12-06T01:55:32.347Z,90.07
2022-12-06T01:58:04.670Z,89.95
2022-12-06T02:00:31.237Z,89.93
2022-12-06T02:03:00.495Z,89.89
2022-12-06T02:05:28.658Z,89.94
2022-12-06T02:07:56.851Z,89.54
2022-12-06T02:10:23.619Z,89.33
2022-12-06T02:12:55.009Z,90.01
2022-12-06T02:15:29.279Z,89.92
2022-12-06T02:18:12.139Z,90.64
2022-12-06T02:20:46.855Z,90.13
2022-12-06T02:23:44.155Z,90.76
2022-12-06T02:26:25.201Z,90.30
2022-12-06T02:29:20.035Z,89.91
2022-12-06T02:32:07.799Z,90.06
2022-12-06T02:34:52.552Z,90.52
2022-12-06T02:37:25.947Z,89.76
2022-12-06T02:40:15.835Z,90.76
2022-12-06T02:42:49.396Z,89.94
2022-12-06T02:45:21.080Z,89.75
2022-12-06T02:47:50.183Z,89.92
2022-12-06T02:50:19.790Z,89.98
2022-12-06T02:52:49.690Z,89.56
2022-12-06T02:55:18.085Z,89.82
2022-12-06T02:57:47.419Z,89.54
2022-12-06T03:00:34.976Z,90.78
2022-12-06T03:03:20.186Z,90.59
2022-12-06T03:06:01.992Z,90.03
2022-12-06T03:08:36.409Z,89.47
2022-12-06T03:11:03.364Z,89.62
2022-12-06T03:13:56.073Z,89.83
2022-12-06T03:16:41.240Z,90.20
2022-12-06T03:19:21.262Z,89.81
2022-12-06T03:22:03.037Z,90.41
2022-12-06T03:24:33.777Z,89.73
2022-12-06T03:27:04.450Z,89.94
2022-12-06T03:29:33.381Z,89.70
2022-12-06T03:32:03.674Z,89.68
2022-12-06T03:34:32.733Z,90.25
2022-12-06T03:37:01.797Z,89.15
2022-12-06T03:39:37.790Z,89.84
2022-12-06T03:42:04.804Z,89.54
2022-12-06T03:44:31.429Z,89.47
2022-12-06T03:47:05.016Z,89.93
2022-12-06T03:49:38.546Z,89.98
2022-12-06T03:52:05.293Z,89.81
2022-12-06T03:54:31.792Z,89.89
2022-12-06T03:56:58.352Z,89.87
2022-12-06T03:59:24.819Z,90.00
2022-12-06T04:01:51.498Z,89.94
2022-12-06T04:04:18.073Z,89.79
2022-12-06T04:06:44.624Z,89.52
2022-12-06T04:09:29.333Z,89.91
2022-12-06T04:11:55.985Z,89.81
2022-12-06T04:14:22.454Z,90.08
2022-12-06T04:17:07.606Z,89.75
2022-12-06T04:19:34.068Z,89.59
2022-12-06T04:22:18.798Z,89.81
2022-12-06T04:24:45.250Z,89.53
2022-12-06T04:27:30.781Z,89.52
2022-12-06T04:30:16.092Z,89.53
2022-12-06T04:33:00.966Z,89.59
2022-12-06T04:35:45.765Z,89.70
2022-12-06T04:38:30.782Z,89.83
2022-12-06T04:40:57.254Z,89.80
2022-12-06T04:43:41.938Z,89.47
2022-12-06T04:46:14.308Z,89.93
2022-12-06T04:48:44.568Z,89.96
2022-12-06T04:51:13.945Z,90.35
2022-12-06T04:53:40.423Z,89.23
2022-12-06T04:56:07.127Z,89.24
2022-12-06T04:58:33.633Z,89.61
2022-12-06T05:01:00.204Z,89.56
2022-12-06T05:03:27.161Z,89.81
2022-12-06T05:05:53.933Z,89.78
2022-12-06T05:08:20.501Z,89.57
2022-12-06T05:10:48.618Z,90.02
2022-12-06T05:13:18.880Z,89.94
2022-12-06T05:15:52.500Z,90.43
2022-12-06T05:18:19.391Z,89.40
2022-12-06T05:20:45.993Z,89.71
2022-12-06T05:23:12.799Z,89.48
2022-12-06T05:25:39.426Z,89.44
2022-12-06T05:28:06.132Z,89.80
2022-12-06T05:30:32.829Z,89.67
2022-12-06T05:32:59.299Z,89.66
2022-12-06T05:35:25.965Z,89.70
2022-12-06T05:37:52.399Z,89.63
2022-12-06T05:40:18.900Z,89.92
2022-12-06T05:42:45.404Z,89.63
2022-12-06T05:45:12.156Z,89.74
2022-12-06T05:47:39.764Z,89.63
2022-12-06T05:50:06.810Z,89.65
2022-12-06T05:52:33.236Z,89.90
2022-12-06T05:55:00.039Z,89.59
2022-12-06T05:57:26.833Z,89.68
2022-12-06T05:59:53.297Z,89.56
2022-12-06T06:02:19.862Z,89.71
2022-12-06T06:04:46.378Z,89.76
2022-12-06T06:07:12.809Z,89.51
2022-12-06T06:09:39.199Z,89.72
2022-12-06T06:12:12.074Z,89.79
2022-12-06T06:14:38.999Z,89.67
2022-12-06T06:17:05.447Z,89.74
2022-12-06T06:19:31.978Z,89.80
2022-12-06T06:21:58.468Z,89.49
2022-12-06T06:24:24.860Z,89.72
2022-12-06T06:26:51.305Z,89.39
2022-12-06T06:29:17.761Z,89.50
2022-12-06T06:31:44.249Z,89.64
2022-12-06T06:34:12.840Z,89.42
2022-12-06T06:36:44.078Z,89.83
2022-12-06T06:39:12.403Z,89.46
2022-12-06T06:41:38.876Z,89.46
2022-12-06T06:44:05.365Z,89.43
2022-12-06T06:46:32.128Z,89.53
2022-12-06T06:48:58.616Z,89.44
2022-12-06T06:51:25.129Z,89.16
2022-12-06T06:53:51.639Z,89.50
2022-12-06T06:56:18.299Z,89.34
2022-12-06T06:58:44.748Z,89.41
2022-12-06T07:01:17.580Z,89.92
2022-12-06T07:03:44.269Z,89.41
2022-12-06T07:06:11.973Z,89.31
2022-12-06T07:08:40.094Z,89.07
2022-12-06T07:11:06.519Z,89.58
2022-12-06T07:13:32.989Z,89.70
2022-12-06T07:15:59.503Z,89.42
2022-12-06T07:18:26.094Z,89.53
2022-12-06T07:21:00.764Z,89.93
2022-12-06T07:23:27.465Z,89.24
2022-12-06T07:26:06.184Z,89.85
2022-12-06T07:28:35.822Z,89.46
2022-12-06T07:31:14.640Z,90.05
2022-12-06T07:33:42.737Z,89.13
2022-12-06T07:36:12.813Z,88.89
2022-12-06T07:38:41.501Z,89.20
2022-12-06T07:41:30.635Z,89.32
2022-12-06T07:44:16.978Z,89.35
2022-12-06T07:46:43.898Z,89.39
2022-12-06T07:49:11.076Z,89.33
2022-12-06T07:51:38.158Z,89.12
2022-12-06T07:54:04.702Z,89.40
2022-12-06T07:56:31.213Z,89.48
2022-12-06T07:58:57.756Z,89.62
2022-12-06T08:01:24.627Z,89.79
2022-12-06T08:03:51.215Z,89.63
2022-12-06T08:06:17.786Z,89.41
2022-12-06T08:08:44.334Z,89.48
2022-12-06T08:11:11.092Z,89.46
2022-12-06T08:13:38.300Z,89.57
2022-12-06T08:16:12.246Z,89.74
2022-12-06T08:18:40.108Z,89.41
2022-12-06T08:21:07.751Z,89.41
2022-12-06T08:23:35.589Z,89.37
2022-12-06T08:26:05.450Z,89.51
2022-12-06T08:28:33.699Z,89.22
2022-12-06T08:31:03.312Z,89.10
2022-12-06T08:33:32.676Z,89.15
2022-12-06T08:35:59.283Z,89.10
2022-12-06T08:38:26.006Z,89.08
2022-12-06T08:40:52.531Z,88.76
2022-12-06T08:43:19.076Z,88.71
2022-12-06T08:45:51.343Z,89.29
2022-12-06T08:48:18.463Z,89.05
2022-12-06T08:50:44.894Z,88.78
2022-12-06T08:53:11.419Z,88.86
2022-12-06T08:55:38.710Z,88.80
2022-12-06T08:58:05.226Z,88.92
2022-12-06T09:00:31.765Z,88.97
2022-12-06T09:02:58.407Z,88.79
2022-12-06T09:05:24.869Z,88.99
2022-12-06T09:07:51.476Z,88.60
2022-12-06T09:10:17.956Z,88.74
2022-12-06T09:12:44.404Z,88.65
2022-12-06T09:15:11.273Z,88.72
2022-12-06T09:17:37.809Z,88.81
2022-12-06T09:20:06.382Z,88.67
2022-12-06T09:22:33.222Z,88.48
2022-12-06T09:24:59.704Z,88.60
2022-12-06T09:27:26.133Z,88.63
2022-12-06T09:29:53.069Z,88.65
2022-12-06T09:32:19.493Z,88.48
2022-12-06T09:34:45.982Z,88.33
2022-12-06T09:37:14.034Z,88.57
2022-12-06T09:39:51.731Z,89.04
2022-12-06T09:42:43.057Z,89.41
2022-12-06T09:45:15.891Z,88.45
2022-12-06T09:48:06.411Z,89.43
2022-12-06T09:50:53.565Z,89.38
2022-12-06T09:53:36.281Z,89.33
2022-12-06T09:56:26.260Z,89.72
2022-12-06T09:59:07.784Z,89.81
2022-12-06T10:01:37.180Z,89.09
2022-12-06T10:04:03.706Z,89.09
2022-12-06T10:06:59.379Z,90.48
2022-12-06T10:09:43.798Z,89.44
2022-12-06T10:12:55.193Z,90.39
2022-12-06T10:15:38.467Z,89.88
2022-12-06T10:18:40.486Z,89.11
2022-12-06T10:21:32.074Z,89.51
2022-12-06T10:24:04.588Z,89.06
2022-12-06T10:26:33.943Z,88.57
2022-12-06T10:29:27.388Z,89.31
2022-12-06T10:32:00.030Z,88.61
2022-12-06T10:34:29.244Z,88.69
2022-12-06T10:37:28.494Z,89.12
2022-12-06T10:40:17.220Z,89.38
2022-12-06T10:43:02.330Z,89.44
2022-12-06T10:45:53.362Z,88.57
2022-12-06T10:48:27.155Z,88.86
2022-12-06T10:51:02.734Z,88.85
2022-12-06T10:53:37.732Z,88.96
2022-12-06T10:56:16.855Z,88.69
2022-12-06T10:58:58.425Z,89.14
2022-12-06T11:01:29.260Z,88.76
2022-12-06T11:04:01.672Z,89.06
2022-12-06T11:06:37.234Z,89.24
2022-12-06T11:09:23.310Z,89.38
2022-12-06T11:11:50.670Z,88.56
2022-12-06T11:14:38.808Z,89.40
2022-12-06T11:17:19.411Z,88.13
2022-12-06T11:19:50.921Z,88.69
2022-12-06T11:22:50.524Z,88.88
2022-12-06T11:25:42.454Z,88.61
2022-12-06T11:28:22.122Z,88.19
2022-12-06T11:30:54.423Z,87.58
2022-12-06T11:33:30.084Z,87.42
2022-12-06T11:36:02.533Z,87.88
2022-12-06T11:38:34.015Z,87.31
2022-12-06T11:41:08.411Z,87.37
2022-12-06T11:43:36.932Z,86.98
2022-12-06T11:46:06.678Z,86.82
2022-12-06T11:48:35.676Z,86.85
2022-12-06T11:51:02.361Z,86.78
2022-12-06T11:53:39.116Z,87.17
2022-12-06T11:56:19.963Z,87.26
2022-12-06T11:59:06.934Z,87.63
2022-12-06T12:01:40.302Z,87.03
2022-12-06T12:04:40.775Z,87.66
2022-12-06T12:07:13.070Z,86.94
2022-12-06T12:09:50.870Z,87.51
2022-12-06T12:12:46.395Z,87.52
2022-12-06T12:15:19.881Z,87.61
2022-12-06T12:17:49.942Z,87.16
2022-12-06T12:20:39.227Z,88.28
2022-12-06T12:23:14.576Z,86.84
2022-12-06T12:25:44.008Z,86.54
2022-12-06T12:28:35.073Z,87.99
2022-12-06T12:31:22.949Z,87.89
2022-12-06T12:34:22.867Z,87.48
2022-12-06T12:36:57.692Z,87.14
2022-12-06T12:39:39.046Z,87.48
2022-12-06T12:42:27.569Z,87.72
2022-12-06T12:44:59.740Z,86.84
2022-12-06T12:47:28.136Z,86.61
2022-12-06T12:50:20.477Z,87.42
2022-12-06T12:52:49.958Z,86.28
2022-12-06T12:55:26.130Z,87.18
2022-12-06T12:58:06.201Z,86.55
2022-12-06T13:00:42.641Z,86.49
2022-12-06T13:03:49.500Z,86.90
2022-12-06T13:06:06.093Z,86.85
2022-12-06T13:08:39.449Z,86.34
2022-12-06T13:11:09.397Z,86.66
2022-12-06T13:13:55.510Z,86.79
2022-12-06T13:16:31.102Z,87.00
2022-12-06T13:18:59.098Z,86.34
2022-12-06T13:21:41.241Z,87.68
2022-12-06T13:24:26.220Z,87.30
2022-12-06T13:27:02.571Z,86.94
2022-12-06T13:29:54.511Z,86.90
2022-12-06T13:32:29.765Z,87.00
2022-12-06T13:35:27.535Z,86.90
2022-12-06T13:37:57.965Z,86.12
2022-12-06T13:40:35.337Z,86.93
2022-12-06T13:43:07.326Z,85.89
2022-12-06T13:45:53.801Z,86.80
2022-12-06T13:48:46.203Z,86.65
2022-12-06T13:54:21.024Z,86.13
2022-12-06T13:57:02.576Z,86.78
2022-12-06T13:59:35.490Z,86.34
2022-12-06T14:02:51.483Z,87.05
2022-12-06T14:09:03.363Z,87.02
2022-12-06T14:11:36.580Z,85.82
2022-12-06T14:14:16.877Z,85.62
2022-12-06T14:16:54.638Z,85.41
2022-12-06T14:19:45.897Z,86.71
2022-12-06T14:22:22.166Z,85.65
2022-12-06T14:25:18.970Z,86.27
2022-12-06T14:27:53.042Z,85.23
2022-12-06T14:30:26.163Z,85.04
2022-12-06T14:33:00.812Z,84.90
2022-12-06T14:35:40.955Z,85.02
2022-12-06T14:38:27.604Z,85.23
2022-12-06T14:41:13.444Z,84.17
2022-12-06T14:43:42.562Z,84.34
2022-12-06T14:46:17.302Z,84.45
2022-12-06T14:49:06.137Z,83.87
2022-12-06T14:51:43.821Z,84.25
2022-12-06T14:54:32.979Z,85.02
2022-12-06T14:57:03.496Z,83.64
2022-12-06T15:00:13.966Z,83.15
2022-12-06T15:02:29.877Z,83.57
2022-12-06T15:05:00.141Z,83.37
2022-12-06T15:07:39.266Z,84.38
2022-12-06T15:10:35.042Z,84.46
2022-12-06T15:13:15.968Z,84.01
2022-12-06T15:16:04.307Z,83.80
2022-12-06T15:18:43.778Z,83.29
2022-12-06T15:21:20.278Z,83.05
2022-12-06T15:23:52.883Z,82.78
2022-12-06T15:26:21.135Z,82.33
2022-12-06T15:28:49.096Z,81.80
2022-12-06T15:31:28.147Z,81.76
2022-12-06T15:33:56.194Z,81.66
2022-12-06T15:36:26.978Z,81.65
2022-12-06T15:38:55.907Z,81.58
2022-12-06T15:41:25.419Z,81.58
2022-12-06T15:43:53.405Z,81.42
2022-12-06T15:46:23.755Z,81.66
2022-12-06T15:48:51.525Z,81.59
2022-12-06T15:51:24.813Z,81.98
2022-12-06T15:53:52.217Z,81.60
2022-12-06T15:56:21.496Z,81.82
2022-12-06T15:58:49.095Z,82.01
2022-12-06T16:01:24.628Z,82.80
2022-12-06T16:03:54.163Z,82.40
2022-12-06T16:06:23.578Z,82.17
2022-12-06T16:08:50.137Z,82.38
2022-12-06T16:11:19.155Z,82.51
2022-12-06T16:13:45.607Z,83.09
2022-12-06T16:16:13.029Z,82.85
2022-12-06T16:18:39.634Z,83.18
2022-12-06T16:21:06.411Z,83.37
2022-12-06T16:26:41.111Z,83.29
2022-12-06T16:29:10.078Z,83.34
2022-12-06T16:31:38.945Z,83.71
2022-12-06T16:34:05.626Z,83.50
2022-12-06T16:36:32.733Z,83.61
2022-12-06T16:39:02.067Z,83.73
2022-12-06T16:41:32.537Z,84.62
2022-12-06T16:43:59.962Z,84.42
2022-12-06T16:46:30.032Z,85.19
2022-12-06T16:49:22.114Z,85.10
2022-12-06T16:51:47.563Z,85.54
2022-12-06T16:54:15.079Z,85.11
2022-12-06T16:56:41.861Z,85.22
2022-12-06T16:59:14.336Z,86.01
2022-12-06T17:01:48.444Z,86.28
2022-12-06T17:04:14.848Z,86.27
2022-12-06T17:06:41.411Z,86.32
2022-12-06T17:09:07.823Z,86.52
2022-12-06T17:11:53.968Z,86.23
2022-12-06T17:14:22.801Z,86.01
2022-12-06T17:16:49.355Z,85.94
2022-12-06T17:19:18.283Z,86.20
2022-12-06T17:21:46.168Z,85.86
2022-12-06T17:24:13.891Z,85.71
2022-12-06T17:26:42.938Z,85.97
2022-12-06T17:29:10.076Z,85.51
2022-12-06T17:31:37.793Z,85.30
2022-12-06T17:34:05.428Z,85.39
2022-12-06T17:36:32.131Z,85.26
2022-12-06T17:38:58.682Z,85.15
2022-12-06T17:41:51.604Z,85.51
2022-12-06T17:44:18.886Z,84.95
2022-12-06T17:46:45.357Z,85.02
2022-12-06T17:49:17.295Z,85.38
2022-12-06T17:51:43.932Z,85.24
2022-12-06T17:54:10.545Z,84.91
2022-12-06T17:56:45.548Z,85.34
2022-12-06T17:59:20.635Z,84.79
2022-12-06T18:04:34.585Z,84.07
2022-12-06T18:07:01.127Z,83.88
2022-12-06T18:09:27.692Z,84.21
2022-12-06T18:11:55.699Z,84.00
2022-12-06T18:14:22.389Z,84.07
2022-12-06T18:16:49.076Z,83.84
2022-12-06T18:19:17.973Z,83.92
2022-12-06T18:21:45.514Z,83.77
2022-12-06T18:24:23.865Z,84.07
2022-12-06T18:26:51.663Z,83.58
2022-12-06T18:29:22.041Z,83.79
2022-12-06T18:31:49.521Z,84.27
2022-12-06T18:34:16.294Z,84.09
2022-12-06T18:36:42.844Z,84.13
2022-12-06T18:39:15.294Z,84.33
2022-12-06T18:41:43.598Z,84.35
2022-12-06T18:44:10.513Z,84.74
2022-12-06T18:46:38.814Z,84.83
2022-12-06T18:49:05.699Z,84.80
2022-12-06T18:51:35.291Z,84.76
2022-12-06T18:54:04.490Z,84.64
2022-12-06T18:56:32.510Z,84.99
2022-12-06T18:59:00.204Z,84.76
2022-12-06T19:01:29.276Z,84.82
2022-12-06T19:03:59.542Z,84.76
2022-12-06T19:06:27.743Z,85.22
2022-12-06T19:08:57.024Z,84.30
2022-12-06T19:11:23.842Z,84.88
2022-12-06T19:13:55.558Z,84.58
2022-12-06T19:16:46.370Z,86.04
2022-12-06T19:19:16.791Z,85.19
2022-12-06T19:21:45.699Z,85.34
2022-12-06T19:24:13.850Z,85.46
2022-12-06T19:26:40.374Z,85.85
2022-12-06T19:29:06.922Z,85.74
2022-12-06T19:31:33.367Z,85.48
2022-12-06T19:33:59.881Z,85.81
2022-12-06T19:36:28.854Z,86.05
2022-12-06T19:39:05.899Z,86.62
2022-12-06T19:41:53.529Z,86.10
2022-12-06T19:44:20.471Z,86.35
2022-12-06T19:46:48.262Z,86.36
2022-12-06T19:49:16.911Z,86.87
2022-12-06T19:51:45.500Z,86.99
2022-12-06T19:54:16.376Z,87.06
2022-12-06T19:56:42.856Z,87.19
2022-12-06T19:59:12.360Z,87.26
2022-12-06T20:01:42.061Z,87.02
2022-12-06T20:04:09.480Z,86.91
2022-12-06T20:06:36.643Z,87.08
2022-12-06T20:09:03.811Z,87.08
2022-12-06T20:11:49.249Z,86.95
2022-12-06T20:14:17.854Z,86.97
2022-12-06T20:16:44.664Z,86.70
2022-12-06T20:19:13.774Z,86.41
2022-12-06T20:21:40.193Z,86.63
2022-12-06T20:24:07.109Z,86.45
2022-12-06T20:26:33.782Z,86.55
2022-12-06T20:29:00.809Z,86.45
2022-12-06T20:31:29.510Z,86.19
2022-12-06T20:33:58.275Z,86.62
2022-12-06T20:36:26.142Z,86.61
2022-12-06T20:38:53.691Z,86.31
2022-12-06T20:41:22.635Z,86.75
2022-12-06T20:43:50.983Z,86.62
2022-12-06T20:46:20.943Z,86.70
2022-12-06T20:48:47.380Z,86.56
2022-12-06T20:51:25.239Z,86.91
2022-12-06T20:53:57.429Z,86.72
2022-12-06T20:56:28.039Z,86.78
2022-12-06T20:58:57.396Z,86.59
2022-12-06T21:01:30.388Z,86.89
2022-12-06T21:03:57.533Z,86.95
2022-12-06T21:06:25.185Z,86.62
2022-12-06T21:08:51.996Z,86.73
2022-12-06T21:11:23.105Z,86.58
2022-12-06T21:13:55.263Z,86.50
2022-12-06T21:16:27.625Z,87.09
2022-12-06T21:19:04.394Z,86.78
2022-12-06T21:21:34.528Z,86.62
2022-12-06T21:24:02.073Z,86.95
2022-12-06T21:26:29.953Z,86.14
2022-12-06T21:28:57.034Z,86.32
2022-12-06T21:31:31.654Z,87.06
2022-12-06T21:33:58.345Z,86.75
2022-12-06T21:36:25.319Z,86.76
2022-12-06T21:38:52.214Z,86.93
2022-12-06T21:41:19.339Z,87.21
2022-12-06T21:43:46.122Z,87.08
2022-12-06T21:46:15.515Z,87.45
2022-12-06T21:48:42.489Z,87.28
2022-12-06T21:51:11.297Z,87.25
2022-12-06T21:53:38.431Z,87.35
2022-12-06T21:56:07.586Z,87.90
2022-12-06T21:58:35.131Z,87.76
2022-12-06T22:01:10.065Z,87.93
2022-12-06T22:03:37.271Z,87.79
2022-12-06T22:06:08.915Z,88.11
2022-12-06T22:08:35.779Z,87.55
2022-12-06T22:11:10.479Z,87.91
2022-12-06T22:13:37.261Z,87.68
2022-12-06T22:16:08.713Z,87.74
2022-12-06T22:18:44.068Z,87.55
2022-12-06T22:21:14.871Z,87.74
2022-12-06T22:23:41.504Z,87.75
2022-12-06T22:26:09.766Z,87.73
2022-12-06T22:28:36.612Z,88.04
2022-12-06T22:31:11.155Z,88.39
2022-12-06T22:33:37.924Z,88.09
2022-12-06T22:36:04.749Z,88.38
2022-12-06T22:38:31.416Z,88.35
2022-12-06T22:40:59.525Z,88.48
2022-12-06T22:43:26.131Z,88.55
2022-12-06T22:45:52.788Z,89.11
2022-12-06T22:48:19.196Z,89.01
2022-12-06T22:50:45.677Z,89.18
2022-12-06T22:53:15.171Z,89.64
2022-12-06T22:55:41.656Z,89.38
2022-12-06T22:58:08.193Z,89.34
2022-12-06T23:00:34.615Z,89.43
2022-12-06T23:03:00.983Z,89.54
2022-12-06T23:05:27.483Z,89.25
2022-12-06T23:07:53.973Z,89.11
2022-12-06T23:10:21.702Z,89.14
2022-12-06T23:12:48.147Z,88.81
2022-12-06T23:15:14.580Z,89.05
2022-12-06T23:17:41.161Z,88.81
2022-12-06T23:20:08.320Z,88.67
2022-12-06T23:22:34.708Z,88.72
2022-12-06T23:25:01.148Z,88.85
2022-12-06T23:27:27.657Z,88.87
2022-12-06T23:29:54.071Z,88.65
2022-12-06T23:32:20.566Z,88.50
2022-12-06T23:34:47.615Z,88.53
2022-12-06T23:37:14.051Z,88.15
2022-12-06T23:39:40.496Z,88.27
2022-12-06T23:42:06.998Z,88.26
2022-12-06T23:44:33.574Z,88.09
2022-12-06T23:47:00.173Z,87.86
2022-12-06T23:49:26.689Z,87.93
2022-12-06T23:51:53.101Z,88.09
2022-12-06T23:54:19.571Z,87.96
2022-12-06T23:56:46.377Z,88.12
2022-12-06T23:59:14.872Z,87.98
